Back to year calendar

Eccup 10, Leeds, West Yorkshire

15th July 2007

(This is a sortable table - click column heading)
Results courtesy of John Ward for Abbey Runners
Filter (choose one only!)
Surname:
Cat: Club:
PosNumForenameSurnameCatYVAAClubTime
181TimCrosslandM Open Leeds City AC00:54:01
297TrevorWilksM OpenM35Leeds City AC00:55:21
33SeanCotterM40M40Leeds City AC00:56:23
42TraceyMorrisF35 Valley Striders00:56:26
54Susan PartridgeF Open Leeds City AC00:57:14
6630TimMidgleyM Open Bingley Harriers00:57:42
7151MikeMavromihalesM40M45Holmfirth Harriers00:57:52
8254RichardBarrettM40M40Skipton AC00:58:22
9136AndrewGuiseleyM Open Dewsbury Road Runners00:58:30
10606CraigKeedyM OpenM35St Theresas AC00:58:55
1185NigelBedellM40M40Keighley & Craven AC00:58:58
12239DavidDarbyM50M50Holmfirth Harriers00:59:36
13616IanWhitehouseM Open Halifax Harriers00:59:50
14658KeithThomasM50 Lostock AC00:59:59
15158AlanSquireM40M40Horsforth Harriers01:00:36
16225EddieLeeM40 Chesterfield AC01:00:53
17253PaulMitchellM40M45Bingley Harriers01:01:03
18209CareyGrayM40M45Bingley Harriers01:01:13
19190AndrewMeskimmonM40M40Dewsbury Road Runners01:01:18
20110RichardButterfieldM50M50Horsforth Harriers01:01:35
21210Martin FirthM40M45Queensbury RC01:01:40
22632JasonWestwoodM Open Halifax Harriers01:01:44
2343Martin HallM40M45Dewsbury Road Runners01:01:44
24229QuentinLewisM Open Baildon Runners01:01:49
25245ChristopherButcherM Open Hartlepool Harriers01:02:03
26268TrevorCloughM40M45Leeds City AC01:02:06
27160NickRichardsonM OpenM35Ilkley Harriers01:02:08
28288MickFlatleyM Open Middleton Harriers01:02:21
29279AntonyBradfordM40M40Spenborough AC01:02:25
30258MarkCrabtreeM40M45Halifax Harriers01:02:25
31281JulianMoranM Open Unattached01:02:29
32633EricPaxmanM Open Holmfirth Harriers01:02:32
33621Jonathan SinclairM40 Ilkley Harriers01:02:45
34144JamesMorrisM OpenM35Dewsbury Road Runners01:02:51
35159MickBrearleyM40M45St Bedes AC01:02:55
36161AnthonyWardM50M55Swaledale Road Runners01:02:58
3779NigelArmitageM OpenM35Pudsey Pacers01:03:01
38187DavidAtkinsonM OpenM35Swaledale Road Runners01:03:10
39274PeterCruseM40 Wesham Road Runners01:03:13
40176JonathanUttleyM40M45Valley Striders01:03:21
41265ChristopherGillM60M60St Theresas AC01:03:45
4246HowardJeffreyM50M50Otley AC01:04:03
43198PatrickByrneM40 Middleton Harriers01:04:17
44194IanSandersonM OpenM35Valley Striders01:04:19
45140TerenceHylandM50 Huddersfield Road Runners01:04:27
46383AndreaDennisonF35F40Bingley Harriers01:04:31
47145PeterMayM40M45Horsforth Harriers01:04:32
48261JohnReillyM50 Middleton Harriers01:04:37
49665JoeDooleyM40 Unattached01:04:43
5090Pete JohnsonM50 Unattached01:04:49
5159PaulGuestM OpenM35Denby Dale Travellers01:04:52
52651JohnMorrisM60 Wolverhampton & Bilston01:05:25
53287AmarnathAhirM50M50Bingley Harriers01:05:34
54211RussellParkinsonM40 Unattached01:05:36
55172AndrewTeanbyM50M50Horsforth Harriers01:05:55
56167GerryBellM50M55Bingley Harriers01:06:00
57208RaymondHallM60M60Halifax Harriers01:06:08
58170DaveBurdonM50M50Pudsey Pacers01:06:18
59126DavidWoodheadM Open Pudsey Pacers01:06:28
60605ColinMilnerM50 Unattached01:06:36
61625AlexPhilpottM Open Unattached01:06:45
62602DavidMiddlemasM Open Valley Striders01:07:01
63659TimLawrenceM Open Unattached01:07:02
64617JohnCalvertM40 Dewsbury Road Runners01:07:17
65127JimWheldonM50M55Pudsey Pacers01:07:26
6630RobertGrayM40M40Wetherby Runners01:07:31
67192MichaelPenningtonM50M50Horsforth Harriers01:07:32
68334JuliaJohnsonF35F40Holmfirth Harriers01:07:34
69203PeterPyrahM50M50Bingley Harriers01:07:46
70207KevinWatsonM60M60Horsforth Harriers01:07:50
7195TimTowlerM40M45Valley Striders01:07:58
72227HaroldDobsonM60M70York Knavesmire Harriers01:08:02
73223DanMurrayM Open Valley Striders01:08:06
74663MarioKokesM40 Kirkstall Harriers01:08:13
7555JohnHolianM40 Unattached01:08:14
76205AdamPartonM OpenM35Valley Striders01:08:25
77244ChrisAllenM OpenM35Scarborough AC01:08:31
7813AndrewWebsterM40M40Abbey Runners01:08:39
79215NickHayworthM Open Unattached01:08:42
80256JamesChapmanM Open Stadium Runners01:08:51
8192TerenceThomsonM50 Unattached01:08:53
82259ShaunDenhamM OpenM35Pudsey Pacers01:08:53
8389IanRobertshawM Open Horsforth Harriers01:09:02
84262NiallCheyneM OpenM35Swaledale Road Runners01:09:07
85221BrynnenMasseyM40 Unattached01:09:18
86444SallyMalirF35F40Ilkley Harriers01:09:24
87282GrahamHopkinsonM50M50Horsforth Harriers01:09:27
88623EirikStangnesM Open Valley Striders01:09:39
89421FionaStrangeF35F40York Knavesmire Harriers01:09:47
90104FrankGlassM OpenM35Skyrac AC01:09:49
91133StephenBrookM60M60Queensbury RC01:09:54
9265DuncanChambersM40M45York Knavesmire Harriers01:10:01
9377LorneMcNeillM OpenM35Baildon Runners01:10:01
94601BrandonHolroydM Open Holmfirth Harriers01:10:03
95186Steve TroutM OpenM35Valley Striders01:10:04
96652AlanHutchinsonM50 Valley Striders01:10:08
97132MatthewRaynerM Open Unattached01:10:11
9832PaulWhiteM50M55Valley Striders01:10:22
99166JohnFirthM60M65Bingley Harriers01:10:26
100647RobertThompsonM50 City of Hull AC01:10:29
101637RichardJonesM Open Unattached01:10:31
10267PatrickBarrettM40M45Valley Striders01:10:46
103643AndyToddM40 Unattached01:10:51
104641GrahamChestersM40 Middleton Harriers01:11:00
105193BillWadeM60M65Holmfirth Harriers01:11:11
10670PatrickJacksonM OpenM35Wetherby Runners01:11:16
10736NeilKinghamM OpenM35York Knavesmire Harriers01:11:24
108260PhillipWhettlockM40M40Halifax Harriers01:11:33
10945IainDunnM40M40Rothwell Harriers01:11:35
110111CarlWalshM40M45Otley AC01:11:42
111631Andrew WilliamWrightM50 Unattached01:11:47
112293JohnCawleyM50M50Baildon Runners01:11:52
113217MarkBoltonM50M50Baildon Runners01:11:56
114156Phil ReayM Open Haltemprice RRC01:11:58
115230RichardThomasM40M45Kirkstall Harriers01:11:59
116273PhilRobinsonM60M60Otley AC01:12:03
117627Chris StreetM Open Unattached01:12:08
118422MichaelaDempseyF35 Northern Vets AC01:12:09
11941Martin SmithM OpenM35York Knavesmire Harriers01:12:14
120638EdwardLeeM Open Leeds/Bradford Tri01:12:15
121168FrankReddingtonM50M55Spenborough AC01:12:21
122243GregSkerrettM Open Valley Striders01:12:23
123635Dominic BrownM Open Unattached01:12:39
124138StephenSeniorM50 Middleton Harriers01:12:40
125361JanetCordingleyF45F45York Knavesmire Harriers01:12:42
126639GaryWilksM Open Ripon Runners01:12:43
127130GuyGoodM Open Skyrac AC01:12:46
128394CaroleSchofieldF45F45Valley Striders01:12:50
129296RichardClarkeM40M45Airecentre Pacers01:12:54
130337LindsayAtkinsonF35 Virgin Road Runners01:13:01
131123MatthewGoldsteinM Open Unattached01:13:02
13266GaryLayfieldM Open Pudsey Pacers01:13:04
133290FredGibbsM60M65Bingley Harriers01:13:10
134206GrahamWilsonM Open Unattached01:13:23
135645IanFerrisM40 Baildon Runners01:13:32
13628MatthewPageM40M45York Knavesmire Harriers01:13:32
137351EmerDudleyF35 Unattached01:13:36
138653NigelTapperM40 Ilkley Harriers01:13:40
139642AndrewTomlinsonM40 Unattached01:13:44
14056OliverDowningM60M60Bingley Harriers01:13:46
141234BenWaltonM Open Unattached01:13:48
142648IanRosserM Open Unattached01:13:49
143372SarahNettletonF45F45York Knavesmire Harriers01:14:00
144657AdrianMarshallM Open Unattached01:14:13
145437Carol - AnnDaviesF45F50Rothwell Harriers01:14:14
146257DavidCooperM50M50Halifax Harriers01:14:15
147312SharonGayterF35 New Marske Harriers01:14:19
148615ChrisCunliffeM Open Unattached01:14:20
149139TomHannahM50M55Otley AC01:14:36
150284NeilGrantM Open Unattached01:14:37
151424GinnyWilleyF Open Middleton Harriers01:14:42
152271HarryMcGillM50M55St Bedes AC01:14:42
153112AlaistairMacleodM40M45York Knavesmire Harriers01:14:52
154603RobertBosekM Open Unattached01:14:55
155348SueSimpsonF45F45Harrogate Harriers01:15:00
156294PaulMilnesM50M50Baildon Runners01:15:09
157191PhilipSwannM40 Unattached01:15:15
158233StewartKinghornM50 Unattached01:15:16
159183Ken ChapmanM60M65Kimberworth Striders RC01:15:18
160249DavidBrookM40 UKNet Runner01:15:40
16147SimonRedshawM OpenM35Valley Striders01:15:44
16293JohnSpencerM50M50Hallamshire Harriers01:15:48
163415RachelNevinsF35 Unattached01:15:56
164237IanStephen M50 Northern Vets AC01:15:57
16584AndrewDalbyM40M40Baildon Runners01:15:59
166614TimPocockM40 Harrogate Harriers01:16:07
167612RobertHunterM40 Rothwell Harriers01:16:16
168141GordonBoothM60M75Longwood Harriers01:16:20
169310AngelaBinnsF35F40Dewsbury Road Runners01:16:22
17022ColinLeaM40M40York Knavesmire Harriers01:16:25
171272MaxWood M50M50Skyrac AC01:16:26
172629Dominic ManuelM50 Tynedale01:16:26
173395AlisonBoyleF Open Virgin Road Runners01:16:28
17464TomTempleM50 Middleton Harriers01:16:29
175178AntonyEastonM40M40Horsforth Harriers01:16:33
176231JulianMurrayM OpenM35Harrogate Harriers01:16:37
177357HelenWalshF35F40Otley AC01:16:57
178216GaryWadeM40M45Holmfirth Harriers01:16:58
179275StevenVasilovM40 Middleton Harriers01:16:58
180443JackieBuxtonF35F35Harrogate Harriers01:17:00
181171BobShimminM50M50Baildon Runners01:17:08
182149SimonGreeneM50 Reebok RC01:17:11
183314AlisonBuchan-GrantF45F45York Knavesmire Harriers01:17:17
184423AngelaBarrettF35F35Skipton AC01:17:23
185109JamesBarlowM Open Unattached01:17:41
186330DianeWaiteF35F40Stainland Lions01:17:43
187624JohnThomasM50 Unattached01:17:47
188405TracyLawlessF Open Middleton Harriers01:17:52
18921DavidDartonM40M45York Knavesmire Harriers01:17:56
190341KarisDaltonF35 Unattached01:18:00
191131ChrisMasleyM Open St Bedes AC01:18:01
192440LesleyBellF35F40Askern District RC01:18:09
193157CliveTittertonM40 Unattached01:18:10
194404SueCrabtreeF35F35Rothwell Harriers01:18:12
195278NicholasSwearmanM40M45Harrogate Harriers01:18:13
196430JulieCruseF45 Wesham Road Runners01:18:28
197316SueSunderlandF45 Unattached01:18:29
19812LisaRudkinF35F35Abbey Runners01:18:38
199660PeadarIversM40 Unattached01:18:40
200242StuartAndersonM60M65Wakefield Harriers01:18:47
201433AngelaAndrewsF35F40Horsforth Harriers01:18:48
20278JohnDadeM40M40Otley AC01:18:48
203201IanSimpsonM Open Unattached01:18:53
20434MalcolmFawcettM60M65York Knavesmire Harriers01:18:54
205200IainCurrieM40 Unattached01:19:03
206431ElizabethSowterF45F45Swaledale Road Runners01:19:16
207609DonSteadM60M65Pudsey Pacers01:19:18
208626MarkHarris M40 Rothwell Harriers01:19:22
20987StevenAbbottM40M45Crossgate Harriers01:19:29
210386ChristineBrooksF45 Middleton Harriers01:19:36
211212DavidLewisM50 Unattached01:19:48
212390ElizabethSomersF35 Unattached01:20:00
213650KeithWoodM40 Ilkley Harriers01:20:05
214240ColinForsterM40 Unattached01:20:12
215646ColinBestM50 Otley AC01:20:12
21626RichardEcclesM Open Leeds/Bradford Tri01:20:13
217114JohnTateM40M45Airecentre Pacers01:20:20
218318GailTombsF55F55Ackworth Road Runners01:20:20
219298RobKilnerM OpenM35Pudsey Pacers01:20:22
220373JoanneAbbottF35 Loftus & Whitby AC01:20:25
221241PatrickNeesonM40M45Swaledale Road Runners01:20:28
222619DanielBenjaminM Open Wakefield Harriers01:20:30
223338NatalieCrosslandF Open Valley Striders01:20:36
224297PhilipFernyhoughM Open Unattached01:20:37
22561TimWilsherM40M40Ackworth Road Runners01:20:40
22660MichaelHowardM40M40Spenborough AC01:20:44
227226DavidComreyM40 Unattached01:20:47
228649RichardWainwrightM Open Nidd Valley Road Runners01:20:56
229119RobertBowieM Open Unattached01:21:00
230218IanFindletonM50 Unattached01:21:01
231285PaulSandersonM OpenM35Valley Striders01:21:02
232370JacquelineCarterF45F45Spenborough AC01:21:03
233184AlistairBlack M50 Unattached01:21:09
234402JayneChappellF45 UKNet Runner01:21:09
235196Martin WalkerM40 UKNet Runner01:21:10
236413ValKerrF45F45Ilkley Harriers01:21:12
237453RuthWalkerF Open Unattached01:21:14
23854DavidWaiteM40M40Stainland Lions01:21:23
239613PatBradyM50 Abbey Runners01:21:24
240214BobWilkesM60M65Valley Striders01:21:32
241604TimBellM OpenM35Askern District RC01:21:36
242332AndreaWilsherF35F35Ackworth Road Runners01:21:40
243607PaulWoodM Open Virgin Road Runners01:21:56
244134JohnDeasyM50 Unattached01:22:04
24551TimCockM60M65Holmfirth Harriers01:22:05
246286StephenNewellM40 Unattached01:22:06
247295JohnCrabtreeM50M50Baildon Runners01:22:14
248366KierstiDickinsonF35F40Holmfirth Harriers01:22:25
249435TeresaHollinsF45 Middleton Harriers01:22:29
250378VictoriaMavromihalesF35F35Holmfirth Harriers01:22:30
251376CarmelHarrisonF45F45Rothwell Harriers01:22:31
252115BrianSherwoodM40M40Nidd Valley Road Runners01:22:37
253142Eric NutterM60M70Swaledale Road Runners01:22:40
254406HeatherMitchellF45F50Dewsbury Road Runners01:22:43
255189StephenCorcoranM Open Unattached01:22:43
256454MelanieGroenF Open Horsforth Harriers01:22:44
25788JamieAllenbyM Open Unattached01:22:44
258610DavidWomersleyM50 Unattached01:22:51
259363HazelPikeF35F35Spenborough AC01:22:54
26029DickHunterM60M60York Knavesmire Harriers01:23:13
261403FionaDickieF35F35Horsforth Harriers01:23:15
262177MikeBrownM50M50Valley Striders01:23:16
263255Matt SealM Open Unattached01:23:18
264343MargaretMetcalfeF55F55York Knavesmire Harriers01:23:29
265399KyrindaHurst-MooreF35 Middleton Harriers01:23:32
266313JoyAllenF45F45York Knavesmire Harriers01:23:35
267125JohnWoodheadM50M50Pudsey Pacers01:23:35
268182GrahamGuestM Open Denby Dale Travellers.123.41
26996MickDowlingM50 Unattached01:23:56
270655NickMellorM50 Ilkley Harriers01:23:59
271174PaulWilsonM50M50York Knavesmire Harriers01:24:04
272228DonaldMacraeM60M60Ilkley Harriers01:24:06
27375TrevorWilloughbyM50 Lytham St Annes RR01:24:07
274417PetraO'ConnorF35 Unattached01:24:17
275169DavidNobleM50M55Baildon Runners01:24:21
276300PeterRamsdenM50M50Denby Dale Travellers01:24:24
27776RaeWilloughbyM50 Lytham St Annes RR01:24:26
278280RobAdamsM Open Unattached01:24:28
279323JanetHydeF45 Unattached01:24:30
280277KeithPratchettM60M60St Bedes AC01:24:35
28198GaryIllingworthM40 Unattached01:24:43
282620JonGreenwoodM Open Unattached01:24:45
283213ChristopherRhodesM Open Unattached01:24:51
284660PeadarIversM40 Unattached01:24:59
28572FredHarrisonM50 Adam's Gym01:25:01
286164RobEasthamM Open Unattached01:25:02
28731MarkVollansM Open Unattached01:25:13
288455PamelaCostelloF50 Redcar Running Club01:25:13
289384PatKirbyF55F55Thirsk & Sowerby Harriers01:25:16
290105GaryMilnerM40 Unattached01:25:17
291100MichaelThompsonM60 Unattached01:25:21
292117WilliamGayterM40 New Marske Harriers01:25:27
293247KennethMumfordM50 Middleton Harriers01:25:27
29453DavidWardM Open Unattached01:25:28
295325TraceyPeatF Open Unattached01:25:30
296345LouiseBealeF Open Unattached01:25:41
297304NicolaMansonF Open Leeds/Bradford Tri01:25:50
298246AdamDuttonM Open Unattached01:25:56
299224TomRidgwayM Open Valley Striders01:25:57
30099DaveRoylesM Open Unattached01:25:57
301656MarkKeaneM40 FRA01:26:02
302266AntonioCardinaleM50M55Otley AC01:26:10
30340MarkFielderM Open Unattached01:26:11
304315MoiraLenaghanF55F65Crossgate Harriers01:26:25
305264RichardAdcockM OpenM35Valley Striders01:26:29
306188PeterFarrM60M60Wakefield Harriers01:26:56
307335SusanHoernigF35 Unattached01:27:00
308662IftYounasM Open Unattached01:27:04
30935JonJenkinsM40 UKNet Runner01:27:10
310299MarkLewisM50 Unattached01:27:21
311146DonaldAbbottM40 Loftus & Whitby AC01:27:27
312181PhilipSomersM40 Unattached01:27:36
313153DaveOwenM40 Unattached01:27:48
31439VicTaylorM60M70Ackworth Road Runners01:28:04
315195DuncanReedM Open Unattached01:28:13
316340PatBodenF45F50York Knavesmire Harriers01:28:27
317407RebeccaHeysF Open Unattached01:28:30
318306DianeBradburyF35 Unattached01:29:02
319445SiobhanCampbellF35 Unattached01:29:04
320303MaureenMedlarF45F50York Knavesmire Harriers01:29:13
32116Eric CsernaM40M40Abbey Runners01:29:19
322428PatriciaWoodF45F50Wakefield Harriers01:29:20
323449LucyJacksonF Open Unattached01:29:25
324450GayleJacksonF Open Unattached01:29:25
325289PeterScanlonM60M60Spenborough AC01:29:33
326640JimMaliaM Open Unattached01:29:35
327185JohnWalshawM60 Redcar Running Club01:29:36
328661DavidJenningsM40 Unattached01:29:36
329441SuzieCoatesF55F55Baildon Runners01:29:47
330393TeresaFuentesF45 Unattached01:29:48
331452HannahCorneF Open Virgin Road Runners01:29:57
332436HelenBaileyF Open Virgin Road Runners01:29:57
333327KatherinePenroseF45F50Kippax Harriers01:30:04
334197MarkGallacherM40 Unattached01:30:14
33550GeoffreyLambourneM60 Unattached01:30:16
33633PatrickNesdenM50M55Kirkstall Harriers01:30:17
337447ElizabethSmith-CalvertF35 Dewsbury Road Runners01:30:27
338269GeoffPerigoM50M50Baildon Runners01:30:32
339451CharlotteNiblettF Open Unattached01:30:37
340113JohnMarlowM50 Unattached01:30:43
341128DanHornerM40 Unattached01:31:09
342154JimmyRisleyM50 Unattached01:31:18
343385MichelleDuffF45F45Kippax Harriers01:31:31
344644StephenO'HaraM50 Horsforth Harriers01:32:02
345263RichardSmithM50M55York Knavesmire Harriers01:32:05
34668KennethBingleyM60M70Ackworth Road Runners01:32:06
347150JohnGoodsonM60 Unattached01:32:17
348349RachelConlin-SmithF Open Unattached01:32:25
349108MichaelFishM Open Chapel Allerton RR01:32:37
350387JennieSmithF45 Unattached01:32:37
351107JamesMilnerM Open Unattached01:32:44
352101DarrenSmithM Open Unattached01:33:05
353180DavidShipleyM50 Road Runners Club01:33:15
354307JaneHartasF35F40York Knavesmire Harriers01:33:20
355618PaulMcDermottM Open Unattached01:33:49
356439LucyCareyF35 Unattached01:33:50
357250AnthonyMawsonM40 Unattached01:33:52
358392LindaCareyF45F45Baildon Runners01:33:52
359374AnneKavanaghF35 Unattached01:33:56
360375Joan KavanaghF35 Unattached01:33:56
361129StuartSmithM40 Unattached01:33:57
362248DerekBuryM60 Middleton Harriers01:34:08
363381RachelHughesF Open Unattached01:34:11
364388LindsayBruceF35 Unattached01:34:12
365628MarkFlanaganM Open Unattached01:34:24
366416PaulineHardmanF55F60St Theresas AC01:34:26
367238GeoffreyHardmanM60M70St Theresas AC01:34:34
368429JillMidwoodF Open Unattached01:34:40
369137JohnErskineM40 Unattached01:34:41
370418JoniSouthallF Open Unattached01:34:50
371364KarenDutson-BromleyF45F45Baildon Runners01:35:02
372135JonHouseM Open Unattached01:35:07
373409TeresaWilliamsF55F60Ackworth Road Runners01:35:08
374220NeilBateM60 Unattached01:35:09
375427BeckyClarkF45 Unattached01:35:27
376367SheilaElyF55F60Longwood Harriers01:35:49
377371RachelDaviesF Open York Knavesmire Harriers01:36:09
378365IreneWelbournF45F45York Knavesmire Harriers01:36:10
379654PaulMilnesM40 Unattached01:36:45
380377Ann-MarieJohnsonF45 Unattached01:36:49
381446ShonaHoldingF35 Abbey Runners01:36:49
38214KatharineLandF Open Abbey Runners01:37:06
383276MichaelJaggerM40 Unattached01:37:34
384235AidanCareyM40 Unattached01:37:46
385419SusanJonesF35 Unattached01:37:51
386251PaulJonesM40 Unattached01:37:52
387448RozWoodF45 Unattached01:38:17
388400JaneSmithF Open Unattached01:38:22
389410DebraBrownF Open Virgin Road Runners01:38:22
390352JacquiWestonF35F35Ilkley Harriers01:38:34
391369DoranneBeresfordF45 Unattached01:38:45
392326DonnaLineF Open St Bedes AC01:39:00
393322JudithNunnF45F45St Bedes AC01:39:12
394611EamonnCowlonM40 Unattached01:39:22
395302MichelleAtkinsF35F40York Knavesmire Harriers01:39:41
396457JaneBairstowF35 Unattached01:39:45
397163MaxJonesM60M80Valley Striders01:39:50
398204BruceHetheringtonM40 Unattached01:40:23
39971BarryRobsonM50 Unattached01:41:16
400336HelenLeachF35F40York Knavesmire Harriers01:42:05
401382SusanAdamsF55F55York Knavesmire Harriers01:42:08
402219AndyBrownM40 Virgin Road Runners01:42:37
403305MeryllCrippsF55 Unattached01:42:44
404396KarenWattsF45 Unattached01:42:51
405121MarkWeldonM40 Unattached01:43:20
406333LyndaBishF55F55York Knavesmire Harriers01:43:30
407456E KayFawcettF Open Virgin Road Runners01:43:59
408165PaulAdamsM50M55York Knavesmire Harriers01:44:05
409389DeborahShipleyF45 Road Runners Club01:44:13
410622MahmoodMesskoubM50 Unattached01:44:14
411634ColinGlassM60 Unattached01:45:00
412301JeanSnellingF55F70York Knavesmire Harriers01:45:35
413202BrianDoddM60M70Ackworth Road Runners01:47:24
414411KarenYouelF35F40Ackworth Road Runners01:47:24
415324DawnJaggerF35 Unattached01:47:58
416323JanetHydeF45 Unattached01:47:58
417143ArthurJamesM60M70Pudsey Pacers01:47:59
418342ChristineHallF45F50Ackworth Road Runners01:48:13
419353MargaretDaviesF55F55St Bedes AC01:50:05
420368GlenysNutterF55F65Swaledale Road Runners01:50:30
421354ClareSmithF35 Unattached01:57:35
422636GrahamDawsonM60 Horsforth Harriers01:59:45
423103JohnStephensonM60 Unattached02:01:06
424328JanetGuestF55F60Denby Dale Travellers02:04:48
425362LesleyWrightF35 Unattached02:08:34

Back to year index - Top of page